createdAt,value
2018-11-28T00:01:02.595Z,5.00
2018-11-28T00:05:57.039Z,5.00
2018-11-28T00:10:51.439Z,5.00
2018-11-28T00:15:45.839Z,5.00
2018-11-28T00:20:40.239Z,5.10
2018-11-28T00:25:34.642Z,5.10
2018-11-28T00:30:29.047Z,5.10
2018-11-28T00:35:24.759Z,5.10
2018-11-28T00:40:21.023Z,5.10
2018-11-28T00:45:19.417Z,5.20
2018-11-28T00:50:16.580Z,5.20
2018-11-28T00:55:16.298Z,5.30
2018-11-28T01:00:24.600Z,5.20
2018-11-28T01:05:19.195Z,5.10
2018-11-28T01:10:16.110Z,5.00
2018-11-28T01:15:12.391Z,5.00
2018-11-28T01:20:12.595Z,5.00
2018-11-28T01:25:10.221Z,5.00
2018-11-28T01:30:07.979Z,5.00
2018-11-28T01:35:02.438Z,5.00
2018-11-28T01:39:56.894Z,4.90
2018-11-28T01:44:51.407Z,4.90
2018-11-28T01:49:45.834Z,4.90
2018-11-28T01:54:40.266Z,4.90
2018-11-28T01:59:34.671Z,5.00
2018-11-28T02:04:29.163Z,5.00
2018-11-28T02:09:23.583Z,5.00
2018-11-28T02:14:17.979Z,5.00
2018-11-28T02:19:12.454Z,5.00
2018-11-28T02:24:07.270Z,5.20
2018-11-28T02:29:01.722Z,5.20
2018-11-28T02:33:56.127Z,5.20
2018-11-28T02:38:50.541Z,5.20
2018-11-28T02:43:45.019Z,5.30
2018-11-28T02:48:39.477Z,5.20
2018-11-28T02:53:33.943Z,5.20
2018-11-28T02:58:28.367Z,5.20
2018-11-28T03:03:22.809Z,5.20
2018-11-28T03:08:17.219Z,5.20
2018-11-28T03:13:11.623Z,5.20
2018-11-28T03:18:06.853Z,5.20
2018-11-28T03:23:01.250Z,5.30
2018-11-28T03:27:55.648Z,5.30
2018-11-28T03:32:50.171Z,5.40
2018-11-28T03:37:44.863Z,5.40
2018-11-28T03:42:39.434Z,5.40
2018-11-28T03:47:33.881Z,5.50
2018-11-28T03:52:28.485Z,5.40
2018-11-28T03:57:22.910Z,5.30
2018-11-28T04:02:17.375Z,5.20
2018-11-28T04:07:11.852Z,5.20
2018-11-28T04:12:06.981Z,5.30
2018-11-28T04:17:01.441Z,5.30
2018-11-28T04:21:55.887Z,5.30
2018-11-28T04:26:50.513Z,5.30
2018-11-28T04:31:45.006Z,5.30
2018-11-28T04:36:39.436Z,5.30
2018-11-28T04:41:33.864Z,5.20
2018-11-28T04:46:28.276Z,5.20
2018-11-28T04:51:22.724Z,5.20
2018-11-28T04:56:17.140Z,5.20
2018-11-28T05:01:11.558Z,5.20
2018-11-28T05:06:06.053Z,5.20
2018-11-28T05:11:00.540Z,5.10
2018-11-28T05:15:55.019Z,5.00
2018-11-28T05:20:49.438Z,5.00
2018-11-28T05:25:43.847Z,5.10
2018-11-28T05:30:38.265Z,5.00
2018-11-28T05:35:36.328Z,5.10
2018-11-28T05:40:30.840Z,5.10
2018-11-28T05:45:25.307Z,5.10
2018-11-28T05:50:22.247Z,5.10
2018-11-28T05:55:18.167Z,5.10
2018-11-28T06:00:37.241Z,5.00
2018-11-28T06:05:31.764Z,5.00
2018-11-28T06:10:26.222Z,5.00
2018-11-28T06:15:20.755Z,4.90
2018-11-28T06:20:16.306Z,4.90
2018-11-28T06:25:16.133Z,4.80
2018-11-28T06:30:13.510Z,4.80
2018-11-28T06:35:09.586Z,4.70
2018-11-28T06:40:04.095Z,4.70
2018-11-28T06:44:58.568Z,4.60
2018-11-28T06:49:53.016Z,4.50
2018-11-28T06:54:47.505Z,4.30
2018-11-28T06:59:41.983Z,4.20
2018-11-28T07:04:36.633Z,4.10
2018-11-28T07:09:31.115Z,4.00
2018-11-28T07:14:25.649Z,4.00
2018-11-28T07:19:20.260Z,3.90
2018-11-28T07:24:16.094Z,4.00
2018-11-28T07:29:10.799Z,4.00
2018-11-28T07:34:05.787Z,4.20
2018-11-28T07:39:00.302Z,4.40
2018-11-28T07:43:55.090Z,4.40
2018-11-28T07:48:50.055Z,4.40
2018-11-28T07:53:44.578Z,4.50
2018-11-28T07:58:42.216Z,4.60
2018-11-28T08:03:36.835Z,4.90
2018-11-28T08:08:35.536Z,4.90
2018-11-28T08:13:30.120Z,4.90
2018-11-28T08:18:24.599Z,5.10
2018-11-28T08:23:19.060Z,5.10
2018-11-28T08:28:14.784Z,5.20
2018-11-28T08:33:09.767Z,5.20
2018-11-28T08:38:04.296Z,5.30
2018-11-28T08:42:59.575Z,5.20
2018-11-28T08:47:58.982Z,5.00
2018-11-28T08:52:54.688Z,5.10
2018-11-28T08:57:50.163Z,5.20
2018-11-28T09:02:45.794Z,5.20
2018-11-28T09:07:40.643Z,5.30
2018-11-28T09:13:04.498Z,5.30
2018-11-28T09:18:00.053Z,5.40
2018-11-28T09:22:55.218Z,5.70
2018-11-28T09:27:58.481Z,5.70
2018-11-28T09:32:59.552Z,5.80
2018-11-28T09:37:54.260Z,5.30
2018-11-28T09:42:58.937Z,5.20
2018-11-28T09:47:54.969Z,5.20
2018-11-28T09:52:49.641Z,5.30
2018-11-28T09:57:44.781Z,5.50
2018-11-28T10:02:39.445Z,5.50
2018-11-28T10:07:34.360Z,5.70
2018-11-28T10:12:29.835Z,5.70
2018-11-28T10:17:24.589Z,5.60
2018-11-28T10:22:19.171Z,5.90
2018-11-28T10:27:27.647Z,5.90
2018-11-28T10:32:22.530Z,6.00
2018-11-28T10:37:17.099Z,6.20
2018-11-28T10:42:11.772Z,6.20
2018-11-28T10:47:06.478Z,6.00
2018-11-28T10:52:01.451Z,6.30
2018-11-28T10:56:56.645Z,6.50
2018-11-28T11:01:52.500Z,6.80
2018-11-28T11:06:52.278Z,7.00
2018-11-28T11:11:52.330Z,6.90
2018-11-28T11:16:46.790Z,7.00
2018-11-28T11:21:41.836Z,6.90
2018-11-28T11:26:36.678Z,6.90
2018-11-28T11:31:31.658Z,6.70
2018-11-28T11:36:26.549Z,6.50
2018-11-28T11:41:21.212Z,6.60
2018-11-28T11:46:18.182Z,6.50
2018-11-28T11:51:12.958Z,6.50
2018-11-28T11:56:09.186Z,6.80
2018-11-28T12:01:04.156Z,6.80
2018-11-28T12:05:59.995Z,6.90
2018-11-28T12:10:54.696Z,7.00
2018-11-28T12:15:49.489Z,7.00
2018-11-28T12:20:56.823Z,6.90
2018-11-28T12:25:51.487Z,7.10
2018-11-28T12:30:46.168Z,7.40
2018-11-28T12:35:42.791Z,7.70
2018-11-28T12:40:39.187Z,7.70
2018-11-28T12:45:33.907Z,7.70
2018-11-28T12:50:29.779Z,7.70
2018-11-28T12:55:25.199Z,7.60
2018-11-28T13:00:23.054Z,7.80
2018-11-28T13:05:19.111Z,7.90
2018-11-28T13:10:20.364Z,7.90
2018-11-28T13:15:18.995Z,8.00
2018-11-28T13:20:17.142Z,7.80
2018-11-28T13:25:18.034Z,7.70
2018-11-28T13:30:17.877Z,7.60
2018-11-28T13:35:15.023Z,7.30
2018-11-28T13:40:13.188Z,7.30
2018-11-28T13:45:12.250Z,7.40
2018-11-28T13:50:09.404Z,7.40
2018-11-28T13:55:37.406Z,7.30
2018-11-28T13:59:58.930Z,7.30
2018-11-28T14:05:00.836Z,7.30
2018-11-28T14:09:55.815Z,7.40
2018-11-28T14:14:50.307Z,7.50
2018-11-28T14:19:45.107Z,7.50
2018-11-28T14:24:49.817Z,7.50
2018-11-28T14:29:51.277Z,7.40
2018-11-28T14:34:46.123Z,7.30
2018-11-28T14:39:40.729Z,7.20
2018-11-28T14:44:35.694Z,7.00
2018-11-28T14:49:31.691Z,6.90
2018-11-28T14:54:26.225Z,6.90
2018-11-28T14:59:20.933Z,6.70
2018-11-28T15:04:15.839Z,6.40
2018-11-28T15:09:16.582Z,6.40
2018-11-28T15:14:11.430Z,6.40
2018-11-28T15:19:06.393Z,6.20
2018-11-28T15:24:01.915Z,6.20
2018-11-28T15:28:56.617Z,6.00
2018-11-28T15:33:51.375Z,5.90
2018-11-28T15:38:45.950Z,5.80
2018-11-28T15:43:40.592Z,5.90
2018-11-28T15:48:36.479Z,5.80
2018-11-28T15:53:31.308Z,5.90
2018-11-28T15:58:26.664Z,5.90
2018-11-28T16:03:21.403Z,5.80
2018-11-28T16:08:16.080Z,5.70
2018-11-28T16:13:11.808Z,5.60
2018-11-28T16:18:06.688Z,5.60
2018-11-28T16:23:04.058Z,5.60
2018-11-28T16:27:56.784Z,5.70
2018-11-28T16:32:51.371Z,5.80
2018-11-28T16:37:46.314Z,5.80
2018-11-28T16:42:40.839Z,5.90
2018-11-28T16:47:35.443Z,5.90
2018-11-28T16:52:29.992Z,5.90
2018-11-28T16:57:27.335Z,6.00
2018-11-28T17:02:21.956Z,6.00
2018-11-28T17:07:16.533Z,5.90
2018-11-28T17:12:13.890Z,5.80
2018-11-28T17:17:08.462Z,5.80
2018-11-28T17:22:05.701Z,5.80
2018-11-28T17:27:00.314Z,5.70
2018-11-28T17:31:54.836Z,5.70
2018-11-28T17:36:49.360Z,5.60
2018-11-28T17:41:43.828Z,5.50
2018-11-28T17:46:38.355Z,5.40
2018-11-28T17:51:33.575Z,5.20
2018-11-28T17:56:28.139Z,5.20
2018-11-28T18:01:22.815Z,5.30
2018-11-28T18:06:17.356Z,5.10
2018-11-28T18:11:13.652Z,4.90
2018-11-28T18:16:11.916Z,4.70
2018-11-28T18:21:06.107Z,4.60
2018-11-28T18:26:01.455Z,4.50
2018-11-28T18:30:56.696Z,4.50
2018-11-28T18:35:51.281Z,4.50
2018-11-28T18:40:45.781Z,4.60
2018-11-28T18:45:46.850Z,4.50
2018-11-28T18:50:41.348Z,4.40
2018-11-28T18:55:35.831Z,4.30
2018-11-28T19:00:30.444Z,4.30
2018-11-28T19:05:25.029Z,4.10
2018-11-28T19:10:26.200Z,4.10
2018-11-28T19:15:22.663Z,4.10
2018-11-28T19:20:19.460Z,4.10
2018-11-28T19:25:15.546Z,4.20
2018-11-28T19:30:19.384Z,4.30
2018-11-28T19:35:14.065Z,4.30
2018-11-28T19:40:13.575Z,4.50
2018-11-28T19:45:09.192Z,4.60
2018-11-28T19:50:04.500Z,4.60
2018-11-28T19:54:59.191Z,4.70
2018-11-28T19:59:53.972Z,4.60
2018-11-28T20:04:48.852Z,4.70
2018-11-28T20:09:43.415Z,4.60
2018-11-28T20:14:38.028Z,4.70
2018-11-28T20:19:32.622Z,4.80
2018-11-28T20:24:27.225Z,4.90
2018-11-28T20:29:21.744Z,5.00
2018-11-28T20:34:16.332Z,5.00
2018-11-28T20:39:11.063Z,5.00
2018-11-28T20:44:05.812Z,5.00
2018-11-28T20:49:00.265Z,5.10
2018-11-28T20:53:54.883Z,5.10
2018-11-28T20:58:49.460Z,5.10
2018-11-28T21:03:44.014Z,5.10
2018-11-28T21:08:38.582Z,5.10
2018-11-28T21:13:33.118Z,5.20
2018-11-28T21:18:27.827Z,5.10
2018-11-28T21:23:22.383Z,5.20
2018-11-28T21:28:16.974Z,5.30
2018-11-28T21:33:13.388Z,5.30
2018-11-28T21:38:09.194Z,5.20
2018-11-28T21:43:03.761Z,5.20
2018-11-28T21:47:58.272Z,5.20
2018-11-28T21:52:52.839Z,5.10
2018-11-28T21:57:47.589Z,5.10
2018-11-28T22:02:42.309Z,5.00
2018-11-28T22:07:36.958Z,5.10
2018-11-28T22:12:32.032Z,5.10
2018-11-28T22:17:26.587Z,5.10
2018-11-28T22:22:21.147Z,5.00
2018-11-28T22:27:15.627Z,5.10
2018-11-28T22:32:10.109Z,5.10
2018-11-28T22:37:04.675Z,5.10
2018-11-28T22:41:59.174Z,5.10
2018-11-28T22:46:53.698Z,5.10
2018-11-28T22:51:48.163Z,5.00
2018-11-28T22:56:42.645Z,5.10
2018-11-28T23:04:04.189Z,5.30
2018-11-28T23:08:58.758Z,5.20
2018-11-28T23:13:53.260Z,5.20
2018-11-28T23:18:47.827Z,5.10
2018-11-28T23:23:42.350Z,5.20
2018-11-28T23:28:36.985Z,5.20
2018-11-28T23:33:31.459Z,5.20
2018-11-28T23:38:25.930Z,5.20
2018-11-28T23:43:20.447Z,5.20
2018-11-28T23:48:14.956Z,5.20
2018-11-28T23:53:09.415Z,5.30
2018-11-28T23:58:03.898Z,5.30
